Time;durP1;ratioP1;P1;durP2;ratioP2;P2;SDS_P1;SDS_P2;PMS_P1;PMS_P2;Temp;Humidity;BMP_temperature;BMP_pressure;BME280_temperature;BME280_humidity;BME280_pressure;Samples;Min_cycle;Max_cycle;Signal;HPM_P1;HPM_P2
2023/12/19 00:02:12;;;;;;;13.90;8.00;;;3.60;99.90;;;3.75;97.99;101830.00;4878364;28;25033;-67
2023/12/19 00:04:36;;;;;;;13.00;8.35;;;3.70;99.90;;;3.75;97.98;101835.16;4851131;28;24525;-67
2023/12/19 00:06:58;;;;;;;13.48;8.68;;;3.70;99.90;;;3.71;97.93;101830.94;4870919;28;24462;-65
2023/12/19 00:09:21;;;;;;;13.03;8.47;;;3.60;99.90;;;3.75;97.58;101842.91;4872988;28;25337;-66
2023/12/19 00:11:43;;;;;;;13.90;7.90;;;3.70;99.90;;;3.79;97.49;101822.13;4881993;28;24514;-65
2023/12/19 00:14:07;;;;;;;12.27;7.60;;;3.70;99.90;;;3.85;96.95;101810.81;4875843;28;24527;-66
2023/12/19 00:16:29;;;;;;;12.98;7.70;;;3.80;99.90;;;3.78;96.75;101806.69;4876333;28;24446;-65
2023/12/19 00:18:50;;;;;;;13.60;7.90;;;3.80;99.90;;;3.76;97.44;101811.91;4879558;28;24459;-65
2023/12/19 00:21:12;;;;;;;12.82;8.00;;;3.70;99.90;;;3.75;97.36;101836.00;4875517;28;24435;-65
2023/12/19 00:23:34;;;;;;;14.27;8.27;;;3.70;99.90;;;3.73;97.33;101836.94;4860794;28;24563;-66
2023/12/19 00:25:59;;;;;;;14.68;9.18;;;3.70;99.90;;;3.76;97.35;101839.44;4864780;28;24517;-65
2023/12/19 00:28:21;;;;;;;13.80;8.30;;;3.60;99.90;;;3.75;96.86;101837.72;4875066;28;24969;-66
2023/12/19 00:30:43;;;;;;;12.35;7.97;;;3.70;99.90;;;3.75;97.34;101832.56;4879554;28;24458;-66
2023/12/19 00:33:05;;;;;;;13.02;7.90;;;3.70;99.90;;;3.71;97.39;101826.66;4865707;28;24514;-66
2023/12/19 00:35:27;;;;;;;13.47;7.90;;;3.60;99.90;;;3.74;96.75;101820.56;4872579;28;24428;-66
2023/12/19 00:37:51;;;;;;;13.60;7.85;;;3.70;99.90;;;3.74;96.80;101812.81;4865764;28;24471;-67
2023/12/19 00:40:15;;;;;;;13.23;7.97;;;3.60;99.90;;;3.75;96.90;101801.59;4875133;28;20862;-68
2023/12/19 00:42:37;;;;;;;13.80;8.90;;;3.60;99.90;;;3.69;96.98;101797.44;4879426;28;24604;-66
2023/12/19 00:44:59;;;;;;;12.57;8.27;;;3.60;99.90;;;3.72;97.49;101796.53;4873567;28;24866;-65
2023/12/19 00:47:21;;;;;;;16.23;9.15;;;3.60;99.90;;;3.75;97.60;101806.75;4876342;28;24430;-66
2023/12/19 00:49:43;;;;;;;14.27;8.35;;;3.60;99.90;;;3.81;97.53;101794.53;4877145;28;20810;-66
2023/12/19 00:52:05;;;;;;;12.30;7.70;;;3.70;99.90;;;3.77;97.29;101792.94;4878073;28;24490;-67
2023/12/19 00:54:27;;;;;;;15.02;8.60;;;3.70;99.90;;;3.77;96.99;101794.66;4876369;28;24423;-67
2023/12/19 00:56:49;;;;;;;13.23;8.63;;;3.70;99.90;;;3.81;96.62;101797.13;4865709;28;24447;-68
2023/12/19 00:59:11;;;;;;;14.60;9.00;;;3.70;99.90;;;3.81;96.74;101814.38;4879873;28;24442;-68
2023/12/19 01:01:33;;;;;;;12.40;8.57;;;3.70;99.90;;;3.82;96.74;101831.53;4874352;28;25035;-66
2023/12/19 01:03:55;;;;;;;13.98;8.85;;;3.70;99.90;;;3.82;96.77;101849.63;4873668;28;24940;-67
2023/12/19 01:06:17;;;;;;;13.95;8.88;;;3.80;99.90;;;3.85;96.29;101852.94;4875439;28;24428;-66
2023/12/19 01:08:39;;;;;;;13.77;9.15;;;3.80;99.90;;;3.84;96.36;101856.44;4876066;28;24432;-66
2023/12/19 01:11:01;;;;;;;14.38;8.65;;;3.80;99.90;;;3.86;95.97;101852.09;4872016;28;24466;-67
2023/12/19 01:13:23;;;;;;;13.43;8.23;;;3.80;99.90;;;3.85;95.96;101847.78;4880476;28;25267;-64
2023/12/19 01:15:45;;;;;;;14.60;9.38;;;3.80;99.90;;;3.78;96.22;101842.84;4880339;28;24972;-65
2023/12/19 01:18:07;;;;;;;15.55;9.90;;;3.70;99.90;;;3.62;95.88;101839.78;4879705;28;24431;-65
2023/12/19 01:20:29;;;;;;;16.27;10.20;;;3.60;99.90;;;3.56;95.43;101836.47;4875456;28;24489;-65
2023/12/19 01:22:51;;;;;;;16.70;9.50;;;3.50;99.90;;;3.53;95.53;101828.84;4868719;28;24516;-65
2023/12/19 01:25:13;;;;;;;19.75;9.50;;;3.50;99.90;;;3.46;96.17;101827.28;4867969;28;25091;-66
2023/12/19 01:27:35;;;;;;;17.45;9.95;;;3.40;99.90;;;3.43;96.02;101835.94;4869164;28;24501;-66
2023/12/19 01:29:57;;;;;;;13.45;8.50;;;3.40;99.90;;;3.39;95.56;101833.47;4873986;28;24547;-66
2023/12/19 01:32:20;;;;;;;15.40;8.52;;;3.30;99.90;;;3.34;95.62;101835.31;4860660;28;24436;-67
2023/12/19 01:34:42;;;;;;;16.35;9.15;;;3.30;99.90;;;3.31;95.43;101830.22;4867334;28;24443;-67
2023/12/19 01:37:04;;;;;;;12.18;7.50;;;3.20;99.90;;;3.26;95.83;101821.75;4874579;28;24423;-64
2023/12/19 01:39:26;;;;;;;15.35;9.13;;;3.20;99.90;;;3.22;95.67;101823.53;4874853;28;24458;-66
2023/12/19 01:41:48;;;;;;;16.75;9.00;;;3.10;99.90;;;3.17;95.76;101816.78;4873312;28;24462;-68
2023/12/19 01:44:18;;;;;;;13.88;8.60;;;3.10;99.90;;;3.11;96.57;101804.88;4875666;28;24442;-65
2023/12/19 01:46:40;;;;;;;15.13;9.00;;;3.10;99.90;;;3.04;96.34;101806.78;4868682;28;24427;-66
2023/12/19 01:49:02;;;;;;;15.07;8.30;;;3.00;99.90;;;2.98;96.48;101812.03;4875237;28;20870;-65
2023/12/19 01:51:24;;;;;;;15.45;9.00;;;2.90;99.90;;;2.94;96.67;101818.16;4857118;28;24428;-65
2023/12/19 01:53:47;;;;;;;15.70;9.10;;;2.90;99.90;;;2.89;95.71;101817.41;4870074;28;24493;-65
2023/12/19 01:56:10;;;;;;;14.63;9.32;;;2.90;99.90;;;2.85;96.11;101830.41;4872956;28;24466;-65
2023/12/19 01:58:35;;;;;;;17.40;9.90;;;2.80;99.90;;;2.82;97.10;101840.75;4869850;28;24550;-66
2023/12/19 02:00:57;;;;;;;17.13;10.25;;;2.80;99.90;;;2.83;96.92;101840.72;4871760;28;24534;-66
2023/12/19 02:03:20;;;;;;;18.27;10.73;;;2.80;99.90;;;2.89;98.55;101840.63;4854883;28;24432;-65
2023/12/19 02:05:47;;;;;;;19.58;11.85;;;2.90;99.90;;;2.97;98.76;101845.59;4867215;28;24458;-68
2023/12/19 02:08:09;;;;;;;18.27;11.30;;;2.90;99.90;;;3.04;98.50;101848.03;4858547;28;24450;-65
2023/12/19 02:10:31;;;;;;;16.83;10.40;;;3.00;99.90;;;3.01;98.92;101836.91;4878405;28;24490;-66
2023/12/19 02:12:53;;;;;;;18.40;10.32;;;3.00;99.90;;;2.95;99.39;101837.91;4871726;28;20795;-65
2023/12/19 02:15:15;;;;;;;18.33;10.77;;;3.00;99.90;;;2.96;99.99;101831.84;4875285;28;24519;-66
2023/12/19 02:17:39;;;;;;;16.13;9.88;;;2.90;99.90;;;3.03;99.66;101825.69;4858223;28;24514;-66
2023/12/19 02:20:01;;;;;;;15.00;8.80;;;3.00;99.90;;;3.06;98.39;101819.63;4881150;28;24431;-66
2023/12/19 02:22:23;;;;;;;17.35;9.48;;;3.00;99.90;;;3.02;98.72;101815.41;4865411;28;25123;-65
2023/12/19 02:24:45;;;;;;;15.73;9.43;;;3.00;99.90;;;2.95;98.01;101817.28;4874958;28;24972;-65
2023/12/19 02:27:08;;;;;;;19.23;10.27;;;2.90;99.90;;;2.90;98.11;101825.97;4866942;28;24443;-66
2023/12/19 02:29:30;;;;;;;18.77;10.60;;;2.90;99.90;;;2.84;98.38;101826.97;4878349;28;24431;-65
2023/12/19 02:31:52;;;;;;;19.13;10.50;;;2.80;99.90;;;2.85;98.49;101818.38;4867267;28;24531;-65
2023/12/19 02:34:13;;;;;;;17.17;10.20;;;2.80;99.90;;;2.84;99.08;101818.38;4864988;28;24434;-65
2023/12/19 02:36:36;;;;;;;18.13;10.70;;;2.80;99.90;;;2.79;99.35;101828.78;4873724;28;24430;-65
2023/12/19 02:38:58;;;;;;;18.40;10.95;;;2.80;99.90;;;2.76;99.76;101833.16;4868800;28;24847;-64
2023/12/19 02:41:20;;;;;;;16.83;8.75;;;2.80;99.90;;;2.81;99.42;101826.19;4873590;28;24462;-66
2023/12/19 02:43:42;;;;;;;18.35;10.10;;;2.80;99.90;;;2.80;99.29;101820.19;4864701;28;25019;-66
2023/12/19 02:46:16;;;;;;;19.23;9.93;;;2.80;99.90;;;2.78;99.31;101818.50;4869323;28;24542;-66
2023/12/19 02:48:38;;;;;;;15.95;9.45;;;2.80;99.90;;;2.74;99.61;101816.88;4874567;28;24455;-65
2023/12/19 02:51:00;;;;;;;16.10;9.63;;;2.70;99.90;;;2.76;99.22;101833.16;4869730;28;24499;-65
2023/12/19 02:53:22;;;;;;;15.48;9.20;;;2.70;99.90;;;2.76;100.00;101830.59;4865691;28;24423;-66
2023/12/19 02:55:44;;;;;;;14.55;9.10;;;2.70;99.90;;;2.81;99.66;101823.63;4874483;28;24880;-65
2023/12/19 02:58:05;;;;;;;15.20;8.80;;;2.80;99.90;;;2.82;99.32;101828.72;4867290;28;24514;-65
2023/12/19 03:00:27;;;;;;;15.32;8.88;;;2.80;99.90;;;2.82;98.94;101831.31;4874575;28;24438;-66
2023/12/19 03:02:50;;;;;;;14.82;8.80;;;2.80;99.90;;;2.80;99.19;101817.59;4871247;28;24438;-66
2023/12/19 03:05:12;;;;;;;14.77;7.53;;;2.80;99.90;;;2.82;99.10;101810.69;4867044;28;24447;-63
2023/12/19 03:07:34;;;;;;;11.98;6.80;;;2.80;99.90;;;2.83;98.19;101799.47;4868402;28;24821;-66
2023/12/19 03:09:56;;;;;;;13.82;7.45;;;2.80;99.90;;;2.80;98.01;101804.72;4872508;28;24447;-65
2023/12/19 03:12:17;;;;;;;14.30;7.65;;;2.80;99.90;;;2.80;97.99;101811.59;4873081;28;24426;-65
2023/12/19 03:14:39;;;;;;;11.40;7.40;;;2.70;99.90;;;2.77;97.88;101791.88;4871274;28;24443;-66
2023/12/19 03:17:03;;;;;;;15.00;7.80;;;2.70;99.90;;;2.75;97.79;101793.66;4866839;28;25092;-65
2023/12/19 03:19:25;;;;;;;16.13;8.25;;;2.70;99.90;;;2.71;97.60;101807.47;4859965;28;24514;-65
2023/12/19 03:21:47;;;;;;;13.25;6.93;;;2.70;99.90;;;2.68;96.78;101796.41;4866453;28;24447;-65
2023/12/19 03:24:09;;;;;;;12.43;7.22;;;2.60;99.90;;;2.66;97.50;101793.84;4878865;28;24924;-66
2023/12/19 03:26:31;;;;;;;13.13;7.33;;;2.60;99.90;;;2.67;96.92;101800.69;4879027;28;20798;-65
2023/12/19 03:28:53;;;;;;;10.07;6.78;;;2.60;99.90;;;2.61;96.85;101792.25;4876002;28;24458;-66
2023/12/19 03:31:16;;;;;;;11.45;6.60;;;2.60;99.90;;;2.60;96.35;101791.38;4879585;28;24978;-67
2023/12/19 03:33:38;;;;;;;10.55;6.40;;;2.50;99.90;;;2.59;96.28;101786.28;4877015;28;24511;-65
2023/12/19 03:36:00;;;;;;;13.45;7.05;;;2.60;99.90;;;2.53;96.64;101776.97;4878812;28;24504;-66
2023/12/19 03:38:22;;;;;;;10.10;6.55;;;2.50;99.90;;;2.50;96.72;101777.00;4874232;28;24465;-65
2023/12/19 03:40:44;;;;;;;13.02;7.15;;;2.50;99.90;;;2.47;96.98;101768.50;4878737;28;24522;-64
2023/12/19 03:43:05;;;;;;;11.48;6.70;;;2.50;99.90;;;2.44;95.91;101748.81;4876404;28;24530;-65
2023/12/19 03:45:27;;;;;;;12.07;7.20;;;2.40;99.90;;;2.33;95.89;101743.03;4873385;28;24447;-65
2023/12/19 03:47:49;;;;;;;10.38;6.30;;;2.40;99.90;;;2.31;96.23;101737.06;4877213;28;24434;-65
2023/12/19 03:50:12;;;;;;;11.80;7.20;;;2.30;99.90;;;2.28;96.42;101744.84;4876984;28;24544;-65
2023/12/19 03:52:34;;;;;;;11.77;7.20;;;2.30;99.90;;;2.25;96.43;101760.38;4877871;28;24979;-65
2023/12/19 03:54:55;;;;;;;16.30;8.00;;;2.30;99.90;;;2.26;96.40;101767.19;4877810;28;24989;-65
2023/12/19 03:57:17;;;;;;;9.30;6.20;;;2.20;99.90;;;2.29;96.33;101757.69;4875524;28;25006;-65
2023/12/19 03:59:43;;;;;;;11.50;6.88;;;2.30;99.90;;;2.27;96.04;101748.31;4880672;28;24462;-65
2023/12/19 04:02:05;;;;;;;10.88;6.82;;;2.30;99.90;;;2.26;96.25;101751.75;4872225;28;24447;-65
2023/12/19 04:04:27;;;;;;;9.15;6.05;;;2.30;99.90;;;2.25;96.66;101761.22;4866768;28;24479;-66
2023/12/19 04:06:49;;;;;;;9.73;5.68;;;2.30;99.90;;;2.27;96.36;101753.47;4869954;28;25075;-65
2023/12/19 04:09:11;;;;;;;10.85;5.90;;;2.30;99.90;;;2.37;96.62;101747.22;4879437;28;24446;-67
2023/12/19 04:11:33;;;;;;;10.88;6.03;;;2.30;99.90;;;2.40;96.26;101743.75;4875907;28;24506;-65
2023/12/19 04:13:55;;;;;;;9.55;5.63;;;2.40;99.90;;;2.35;95.48;101736.97;4874905;28;25079;-66
2023/12/19 04:16:17;;;;;;;10.75;5.70;;;2.40;99.90;;;2.38;96.02;101725.75;4876154;28;24868;-66
2023/12/19 04:18:39;;;;;;;9.40;5.50;;;2.40;99.90;;;2.40;95.27;101734.28;4875843;28;24526;-65
2023/12/19 04:21:01;;;;;;;10.80;6.03;;;2.40;99.90;;;2.38;95.71;101730.91;4879438;28;24518;-65
2023/12/19 04:23:23;;;;;;;9.02;5.75;;;2.40;99.90;;;2.41;95.20;101725.69;4872580;28;24443;-65
2023/12/19 04:25:46;;;;;;;12.35;6.15;;;2.40;99.90;;;2.39;95.36;101732.59;4876910;28;24844;-66
2023/12/19 04:28:08;;;;;;;10.55;5.82;;;2.40;99.90;;;2.38;95.35;101735.22;4876477;28;24434;-65
2023/12/19 04:30:30;;;;;;;12.80;6.00;;;2.30;99.90;;;2.36;95.63;101738.66;4883241;28;24535;-65
2023/12/19 04:32:52;;;;;;;10.88;6.10;;;2.40;99.90;;;2.38;95.63;101745.50;4879616;28;24429;-65
2023/12/19 04:35:14;;;;;;;11.27;5.78;;;2.40;99.90;;;2.27;96.22;101748.31;4867202;28;24450;-63
2023/12/19 04:37:36;;;;;;;11.10;6.20;;;2.30;99.90;;;2.14;96.17;101742.56;4871923;28;24550;-65
2023/12/19 04:39:58;;;;;;;10.20;6.38;;;2.20;99.90;;;2.17;96.47;101741.66;4873061;28;24429;-65
2023/12/19 04:42:20;;;;;;;9.82;6.10;;;2.20;99.90;;;2.20;96.28;101744.16;4875747;28;24431;-66
2023/12/19 04:44:43;;;;;;;9.98;5.22;;;2.20;99.90;;;2.31;95.75;101750.78;4873369;28;25050;-64
2023/12/19 04:47:04;;;;;;;10.97;5.33;;;2.30;99.90;;;2.33;95.79;101748.19;4884650;28;24423;-65
2023/12/19 04:49:26;;;;;;;8.55;5.00;;;2.30;99.90;;;2.25;96.06;101756.06;4876135;28;24871;-66
2023/12/19 04:51:48;;;;;;;8.40;5.32;;;2.30;99.90;;;2.30;95.74;101750.81;4880765;28;24541;-66
2023/12/19 04:54:10;;;;;;;10.00;5.50;;;2.40;99.90;;;2.26;95.47;101741.44;4875467;28;24434;-66
2023/12/19 04:56:32;;;;;;;8.80;4.93;;;2.30;99.90;;;2.28;95.01;101744.84;4865021;28;24540;-65
2023/12/19 04:58:54;;;;;;;7.32;4.80;;;2.30;99.90;;;2.41;94.86;101745.47;4875148;28;25041;-65
2023/12/19 05:01:16;;;;;;;10.15;4.97;;;2.40;99.90;;;2.46;94.54;101746.19;4873791;28;24812;-65
2023/12/19 05:03:41;;;;;;;9.65;5.05;;;2.40;99.90;;;2.49;93.65;101743.56;4875635;28;24427;-65
2023/12/19 05:06:08;;;;;;;10.35;5.05;;;2.50;99.90;;;2.54;93.45;101734.84;4873244;28;20762;-65
2023/12/19 05:08:30;;;;;;;9.25;5.18;;;2.50;99.90;;;2.58;93.45;101731.31;4875825;28;24518;-65
2023/12/19 05:10:52;;;;;;;9.15;5.10;;;2.50;99.90;;;2.62;93.51;101730.38;4875458;28;24528;-66
2023/12/19 05:13:14;;;;;;;8.95;5.30;;;2.60;99.90;;;2.63;92.78;101724.34;4864452;28;24535;-65
2023/12/19 05:15:36;;;;;;;7.78;4.80;;;2.60;99.90;;;2.68;92.33;101730.25;4875406;28;24430;-65
2023/12/19 05:17:58;;;;;;;9.25;5.47;;;2.70;99.90;;;2.72;92.51;101733.59;4875287;28;24558;-66
2023/12/19 05:20:21;;;;;;;10.47;5.67;;;2.70;99.90;;;2.74;92.11;101727.53;4865896;28;24946;-65
2023/12/19 05:22:44;;;;;;;11.47;5.70;;;2.70;99.90;;;2.77;91.99;101731.78;4875077;28;24435;-66
2023/12/19 05:25:07;;;;;;;8.32;5.22;;;2.70;99.90;;;2.62;92.39;101730.38;4874165;28;24454;-66
2023/12/19 05:27:29;;;;;;;11.05;5.85;;;2.70;99.90;;;2.67;92.62;101736.28;4865085;28;24455;-65
2023/12/19 05:29:50;;;;;;;9.77;5.57;;;2.60;99.90;;;2.70;92.28;101741.38;4875295;28;24446;-66
2023/12/19 05:32:12;;;;;;;13.30;5.30;;;2.70;99.90;;;2.72;91.86;101739.63;4873322;28;25004;-65
2023/12/19 05:34:34;;;;;;;8.33;4.93;;;2.70;99.90;;;2.71;91.93;101743.06;4869811;28;24455;-66
2023/12/19 05:36:56;;;;;;;9.35;5.65;;;2.60;99.90;;;2.69;92.07;101739.66;4881295;28;24526;-65
2023/12/19 05:39:18;;;;;;;11.68;6.00;;;2.60;99.90;;;2.67;92.01;101754.31;4864422;28;24455;-66
2023/12/19 05:41:40;;;;;;;9.15;5.72;;;2.60;99.90;;;2.61;91.89;101748.44;4873325;28;25002;-66
2023/12/19 05:44:02;;;;;;;11.13;5.70;;;2.60;99.90;;;2.62;91.87;101745.81;4873857;28;24435;-66
2023/12/19 05:46:24;;;;;;;10.90;5.77;;;2.60;99.90;;;2.55;92.21;101753.72;4877120;28;24542;-67
2023/12/19 05:48:46;;;;;;;11.50;5.90;;;2.60;99.90;;;2.59;92.65;101751.06;4873613;28;24509;-67
2023/12/19 05:51:08;;;;;;;7.72;4.88;;;2.60;99.90;;;2.62;92.48;101768.19;4873266;28;24509;-66
2023/12/19 05:53:30;;;;;;;6.78;3.85;;;2.60;99.90;;;2.53;92.80;101758.06;4864299;28;24564;-67
2023/12/19 05:55:52;;;;;;;9.63;5.30;;;2.60;99.90;;;2.52;92.48;101770.09;4867974;28;24531;-65
2023/12/19 05:58:14;;;;;;;9.32;5.05;;;2.60;99.90;;;2.51;92.44;101777.88;4873583;28;24428;-65
2023/12/19 06:00:36;;;;;;;6.88;4.40;;;2.60;99.90;;;2.59;92.98;101797.44;4863647;28;24528;-65
2023/12/19 06:02:58;;;;;;;7.50;4.40;;;2.60;99.90;;;2.52;93.15;101795.88;4873464;28;24427;-66
2023/12/19 06:05:20;;;;;;;10.05;4.43;;;2.60;99.90;;;2.56;92.49;101797.50;4873842;28;24522;-67
2023/12/19 06:07:42;;;;;;;6.97;4.15;;;2.60;99.90;;;2.52;92.54;101795.88;4862231;28;24525;-66
2023/12/19 06:10:13;;;;;;;4.45;3.20;;;2.60;99.90;;;2.61;92.65;101795.69;4869183;28;24481;-66
2023/12/19 06:12:35;;;;;;;7.88;4.63;;;2.60;99.90;;;2.67;91.83;101792.97;4876359;28;24513;-65
2023/12/19 06:14:57;;;;;;;7.88;4.65;;;2.60;99.90;;;2.68;92.36;101786.94;4872445;28;24530;-66
2023/12/19 06:17:19;;;;;;;8.05;4.80;;;2.70;99.90;;;2.74;91.87;101794.53;4874110;28;24522;-66
2023/12/19 06:19:41;;;;;;;8.68;4.95;;;2.70;99.90;;;2.79;91.74;101792.69;4870478;28;24534;-66
2023/12/19 06:22:03;;;;;;;7.50;4.90;;;2.70;99.90;;;2.81;91.54;101788.34;4873951;28;24981;-63
2023/12/19 06:24:25;;;;;;;8.65;5.50;;;2.80;99.90;;;2.84;91.16;101785.72;4871833;28;24443;-66
2023/12/19 06:26:47;;;;;;;7.68;4.70;;;2.80;99.90;;;2.86;90.93;101768.50;4873421;28;25019;-66
2023/12/19 06:29:09;;;;;;;7.57;5.00;;;2.80;99.90;;;2.87;90.90;101764.19;4876321;28;24441;-66
2023/12/19 06:31:31;;;;;;;10.45;5.53;;;2.80;99.90;;;2.89;90.93;101752.97;4872766;28;24479;-64
2023/12/19 06:33:53;;;;;;;8.00;4.80;;;2.80;99.90;;;2.91;91.29;101761.50;4876777;28;24850;-66
2023/12/19 06:36:31;;;;;;;9.27;5.23;;;2.80;99.90;;;2.93;90.69;101767.47;4873594;28;24466;-66
2023/12/19 06:38:54;;;;;;;8.35;5.40;;;2.80;99.90;;;2.95;91.04;101749.38;4856293;28;25155;-66
2023/12/19 06:41:18;;;;;;;7.35;5.22;;;2.90;99.90;;;2.94;90.75;101735.66;4880346;28;24518;-66
2023/12/19 06:43:42;;;;;;;10.55;6.00;;;2.90;99.90;;;2.94;90.50;101727.06;4865939;28;24681;-65
2023/12/19 06:46:04;;;;;;;10.30;6.20;;;2.90;99.90;;;2.92;91.25;101718.50;4873524;28;24485;-66
2023/12/19 06:48:27;;;;;;;12.15;6.10;;;2.80;99.90;;;2.89;91.00;101716.88;4873269;28;24992;-65
2023/12/19 06:50:49;;;;;;;11.27;6.00;;;2.90;99.90;;;2.89;91.10;101722.03;4861979;28;24552;-66
2023/12/19 06:53:11;;;;;;;9.20;5.50;;;2.80;99.90;;;2.89;90.84;101723.75;4870103;28;25139;-67
2023/12/19 06:55:32;;;;;;;9.50;5.78;;;2.80;99.90;;;2.93;91.52;101722.81;4870042;28;24435;-67
2023/12/19 06:57:55;;;;;;;7.97;5.00;;;2.80;99.90;;;2.90;90.62;101734.03;4866692;28;24534;-66
2023/12/19 07:00:18;;;;;;;10.30;5.55;;;2.80;99.90;;;2.93;91.40;101730.53;4866991;28;24496;-67
2023/12/19 07:02:41;;;;;;;7.38;4.50;;;2.80;99.90;;;2.99;90.93;101714.91;4870648;28;25014;-66
2023/12/19 07:05:05;;;;;;;7.32;4.85;;;2.90;99.90;;;2.97;90.29;101722.69;4873035;28;24515;-64
2023/12/19 07:07:27;;;;;;;7.25;4.75;;;2.90;99.90;;;2.99;90.57;101713.19;4867972;28;21347;-66
2023/12/19 07:09:49;;;;;;;8.05;4.55;;;2.90;99.90;;;3.04;90.55;101706.22;4872751;28;24715;-65
2023/12/19 07:12:11;;;;;;;10.63;5.40;;;3.00;99.90;;;3.13;90.25;101707.72;4871855;28;24459;-64
2023/12/19 07:14:33;;;;;;;10.68;5.60;;;3.00;99.90;;;3.21;90.12;101710.09;4866034;28;24434;-66
2023/12/19 07:16:55;;;;;;;11.45;5.90;;;3.10;99.90;;;3.31;89.65;101706.41;4874465;28;24481;-65
2023/12/19 07:19:16;;;;;;;9.75;5.35;;;3.20;99.90;;;3.37;90.03;101701.06;4864076;28;24443;-66
2023/12/19 07:21:39;;;;;;;8.32;4.80;;;3.20;99.90;;;3.44;89.32;101697.47;4872337;28;24977;-65
2023/12/19 07:24:01;;;;;;;10.15;5.90;;;3.30;99.90;;;3.53;88.87;101697.22;4862036;28;25046;-67
2023/12/19 07:26:28;;;;;;;9.82;6.10;;;3.40;99.90;;;3.62;88.98;101694.41;4872313;28;24455;-65
2023/12/19 07:28:51;;;;;;;10.98;5.50;;;3.50;99.90;;;3.75;88.36;101690.59;4870316;28;24560;-65
2023/12/19 07:31:24;;;;;;;7.80;5.03;;;3.50;99.90;;;3.81;87.73;101677.53;4872338;28;24540;-67
2023/12/19 07:33:46;;;;;;;10.43;6.10;;;3.60;99.90;;;3.89;87.20;101678.16;4866333;28;24434;-66
2023/12/19 07:36:08;;;;;;;10.70;5.20;;;3.70;99.90;;;3.98;86.74;101683.09;4866195;28;24809;-65
2023/12/19 07:38:33;;;;;;;8.50;5.50;;;3.80;99.90;;;4.04;85.93;101682.91;4872634;28;25007;-66
2023/12/19 07:40:55;;;;;;;8.98;5.72;;;3.80;99.90;;;3.96;85.96;101676.25;4867099;28;21642;-65
2023/12/19 07:43:17;;;;;;;9.20;5.50;;;3.80;99.90;;;3.97;86.33;101668.47;4872493;28;24485;-66
2023/12/19 07:45:39;;;;;;;8.73;5.47;;;3.80;99.90;;;3.93;85.99;101664.28;4872612;28;24526;-65
2023/12/19 07:48:00;;;;;;;9.57;5.97;;;3.80;99.90;;;3.83;86.79;101655.94;4878932;28;24622;-65
2023/12/19 07:50:23;;;;;;;10.55;6.20;;;3.70;99.90;;;3.80;86.96;101655.19;4865264;28;24470;-64
2023/12/19 07:52:44;;;;;;;10.50;6.30;;;3.70;99.90;;;3.80;86.87;101655.19;4872831;28;24462;-66
2023/12/19 07:55:10;;;;;;;9.18;5.90;;;3.70;99.90;;;3.79;86.94;101649.16;4869197;28;24917;-65
2023/12/19 07:57:32;;;;;;;9.23;5.40;;;3.70;99.90;;;3.81;87.08;101646.56;4866838;28;24449;-65
2023/12/19 07:59:54;;;;;;;9.03;5.73;;;3.70;99.90;;;3.77;87.35;101640.63;4867268;28;20859;-65
2023/12/19 08:02:17;;;;;;;9.52;5.90;;;3.70;99.90;;;3.76;87.15;101644.09;4867526;28;24526;-63
2023/12/19 08:04:39;;;;;;;8.40;5.00;;;3.60;99.90;;;3.80;87.31;101650.88;4864088;28;24505;-65
2023/12/19 08:07:02;;;;;;;6.70;3.92;;;3.60;99.90;;;3.79;86.79;101651.75;4871609;28;25005;-65
2023/12/19 08:09:24;;;;;;;5.30;3.15;;;3.70;99.90;;;3.72;86.81;101641.66;4872202;28;24572;-66
2023/12/19 08:11:47;;;;;;;7.57;4.90;;;3.70;99.90;;;3.68;87.35;101650.38;4869950;28;24516;-66
2023/12/19 08:14:09;;;;;;;5.88;4.20;;;3.60;99.90;;;3.73;87.71;101651.06;4875557;28;24458;-65
2023/12/19 08:16:31;;;;;;;6.63;4.55;;;3.60;99.90;;;3.73;88.01;101651.06;4878300;28;25000;-65
2023/12/19 08:18:53;;;;;;;8.77;5.30;;;3.60;99.90;;;3.76;88.03;101659.59;4882926;28;24475;-65
2023/12/19 08:21:15;;;;;;;8.70;5.30;;;3.60;99.90;;;3.80;88.73;101660.34;4870756;28;24439;-63
2023/12/19 08:23:37;;;;;;;8.50;4.70;;;3.60;99.90;;;3.86;88.11;101650.69;4880201;28;24466;-65
2023/12/19 08:25:59;;;;;;;8.68;5.30;;;3.70;99.90;;;3.93;88.29;101661.69;4875221;28;24501;-65
2023/12/19 08:28:21;;;;;;;7.00;4.97;;;3.80;99.90;;;3.98;88.04;101669.31;4874296;28;24447;-65
2023/12/19 08:30:43;;;;;;;7.68;4.95;;;3.80;99.90;;;4.05;88.53;101675.97;4875806;28;21180;-64
2023/12/19 08:33:05;;;;;;;8.53;5.00;;;3.80;99.90;;;4.10;88.51;101677.56;4875746;28;25004;-65
2023/12/19 08:35:27;;;;;;;7.20;4.50;;;3.90;99.90;;;4.16;88.18;101681.69;4876874;28;20813;-65
2023/12/19 08:37:49;;;;;;;7.10;4.60;;;3.90;99.90;;;4.24;88.12;101679.75;4871430;28;24443;-65
2023/12/19 08:40:12;;;;;;;7.15;4.80;;;4.00;99.90;;;4.29;87.72;101678.72;4872705;28;20767;-66
2023/12/19 08:42:34;;;;;;;7.22;5.07;;;4.10;99.90;;;4.29;86.98;101665.81;4869425;28;24533;-65
2023/12/19 08:44:56;;;;;;;6.60;5.00;;;4.10;99.90;;;4.28;86.86;101676.19;4871253;28;24477;-65
2023/12/19 08:47:18;;;;;;;7.50;4.47;;;4.10;99.90;;;4.35;86.82;101685.44;4876010;28;20807;-65
2023/12/19 08:49:43;;;;;;;7.60;4.80;;;4.10;99.90;;;4.38;86.60;101682.78;4872885;28;24441;-63
2023/12/19 08:52:06;;;;;;;8.15;5.00;;;4.20;99.90;;;4.40;86.60;101681.84;4871618;28;20791;-64
2023/12/19 08:54:28;;;;;;;5.68;4.35;;;4.20;99.90;;;4.39;85.59;101695.63;4880091;28;24430;-65
2023/12/19 08:56:49;;;;;;;7.30;4.38;;;4.20;99.90;;;4.40;85.31;101686.16;4876122;28;20767;-63
2023/12/19 08:59:11;;;;;;;6.03;4.00;;;4.20;99.90;;;4.31;85.24;101679.50;4866945;28;24497;-64
2023/12/19 09:01:34;;;;;;;7.73;4.50;;;4.20;99.90;;;4.31;85.05;101678.66;4874609;28;20886;-66
2023/12/19 09:03:56;;;;;;;7.65;4.60;;;4.20;99.90;;;4.26;84.95;101671.03;4875031;28;24423;-66
2023/12/19 09:06:18;;;;;;;9.20;4.50;;;4.10;99.90;;;4.19;84.79;101668.69;4883551;28;24972;-66
2023/12/19 09:08:40;;;;;;;8.32;4.40;;;4.10;99.90;;;4.18;85.59;101661.81;4870094;28;24513;-64
2023/12/19 09:11:02;;;;;;;6.33;4.00;;;4.10;99.90;;;4.12;85.70;101655.13;4876751;28;20855;-65
2023/12/19 09:13:24;;;;;;;6.35;4.45;;;4.00;99.90;;;4.06;86.10;101652.72;4880213;28;24465;-65
2023/12/19 09:15:46;;;;;;;7.45;4.53;;;4.00;99.90;;;3.97;86.42;101642.66;4878040;28;24431;-65
2023/12/19 09:18:08;;;;;;;7.80;4.97;;;4.00;99.90;;;4.01;86.55;101649.41;4872187;28;24519;-65
2023/12/19 09:20:30;;;;;;;9.23;4.88;;;3.90;99.90;;;3.94;86.84;101645.31;4874760;28;24424;-66
2023/12/19 09:22:52;;;;;;;8.90;4.63;;;3.90;99.90;;;3.87;87.43;101654.13;4866888;28;24825;-66
2023/12/19 09:25:14;;;;;;;6.88;4.30;;;3.80;99.90;;;3.82;87.48;101658.56;4872129;28;24439;-70
2023/12/19 09:27:38;;;;;;;9.02;4.97;;;3.80;99.90;;;3.86;87.67;101660.16;4874653;28;24435;-66
2023/12/19 09:30:00;;;;;;;8.73;5.10;;;3.70;99.90;;;3.91;87.93;101658.31;4872161;28;25000;-67
2023/12/19 09:32:22;;;;;;;11.00;5.50;;;3.80;99.90;;;3.95;87.96;101662.50;4874304;28;24482;-66
2023/12/19 09:34:44;;;;;;;9.73;5.35;;;3.80;99.90;;;3.96;88.30;101655.59;4871213;28;24451;-65
2023/12/19 09:37:07;;;;;;;9.13;5.10;;;3.90;99.90;;;3.98;88.33;101653.81;4875066;28;24995;-65
2023/12/19 09:39:29;;;;;;;8.73;4.78;;;3.90;99.90;;;4.06;88.60;101644.97;4858692;28;24599;-65
2023/12/19 09:41:52;;;;;;;8.40;4.78;;;3.90;99.90;;;4.09;88.19;101650.03;4873183;28;24792;-65
2023/12/19 09:44:14;;;;;;;8.68;4.90;;;4.00;99.90;;;4.16;88.48;101661.03;4871921;28;24565;-67
2023/12/19 09:46:51;;;;;;;8.40;5.13;;;4.00;99.90;;;4.24;88.15;101665.06;4868912;28;21281;-67
2023/12/19 09:49:14;;;;;;;8.90;4.80;;;4.10;99.90;;;4.20;88.99;101671.22;4867187;28;21316;-66
2023/12/19 09:51:42;;;;;;;9.07;5.00;;;4.10;99.90;;;4.23;88.82;101675.47;4863916;28;24539;-67
2023/12/19 09:54:04;;;;;;;9.75;4.88;;;4.10;99.90;;;4.31;88.89;101665.75;4872019;28;24813;-67
2023/12/19 09:56:27;;;;;;;7.30;4.60;;;4.10;99.90;;;4.34;88.45;101665.66;4855060;28;25037;-70
2023/12/19 09:58:51;;;;;;;6.30;4.22;;;4.20;99.90;;;4.43;88.61;101673.97;4870286;28;24442;-65
2023/12/19 10:01:13;;;;;;;6.00;3.97;;;4.20;99.90;;;4.44;88.39;101673.09;4873992;28;24435;-66
2023/12/19 10:03:35;;;;;;;8.20;4.53;;;4.30;99.90;;;4.51;88.41;101656.53;4864354;28;24459;-67